createdAt,value
2023-02-02T00:00:15.264Z,969.79
2023-02-02T00:01:15.234Z,969.82
2023-02-02T00:02:15.223Z,969.90
2023-02-02T00:03:15.191Z,969.90
2023-02-02T00:04:15.239Z,969.85
2023-02-02T00:05:15.207Z,969.84
2023-02-02T00:06:15.142Z,969.87
2023-02-02T00:07:15.197Z,969.88
2023-02-02T00:08:15.118Z,969.86
2023-02-02T00:09:15.105Z,969.89
2023-02-02T00:10:15.109Z,969.91
2023-02-02T00:11:15.054Z,969.90
2023-02-02T00:12:15.083Z,969.92
2023-02-02T00:13:15.041Z,969.94
2023-02-02T00:14:15.011Z,969.84
2023-02-02T00:15:15.044Z,969.92
2023-02-02T00:16:14.991Z,969.90
2023-02-02T00:17:14.965Z,969.85
2023-02-02T00:18:14.944Z,969.90
2023-02-02T00:19:14.943Z,969.91
2023-02-02T00:20:14.932Z,969.93
2023-02-02T00:21:14.906Z,969.92
2023-02-02T00:22:14.891Z,969.87
2023-02-02T00:23:14.873Z,969.85
2023-02-02T00:24:14.836Z,969.90
2023-02-02T00:25:14.838Z,969.83
2023-02-02T00:26:14.789Z,969.94
2023-02-02T00:27:14.782Z,969.88
2023-02-02T00:28:14.771Z,969.86
2023-02-02T00:29:14.805Z,969.83
2023-02-02T00:30:14.756Z,969.91
2023-02-02T00:31:14.767Z,969.88
2023-02-02T00:32:14.709Z,969.89
2023-02-02T00:33:14.723Z,969.92
2023-02-02T00:34:14.672Z,969.95
2023-02-02T00:35:14.680Z,969.89
2023-02-02T00:36:14.643Z,969.94
2023-02-02T00:37:14.615Z,969.95
2023-02-02T00:38:14.596Z,969.92
2023-02-02T00:39:14.587Z,969.99
2023-02-02T00:40:14.629Z,970.08
2023-02-02T00:41:14.566Z,969.87
2023-02-02T00:42:14.527Z,969.94
2023-02-02T00:43:14.574Z,970.02
2023-02-02T00:44:14.514Z,970.07
2023-02-02T00:45:14.515Z,970.10
2023-02-02T00:46:14.463Z,970.03
2023-02-02T00:47:14.446Z,970.04
2023-02-02T00:48:14.433Z,970.03
2023-02-02T00:49:14.416Z,970.09
2023-02-02T00:50:14.425Z,970.09
2023-02-02T00:51:14.384Z,970.06
2023-02-02T00:52:14.364Z,970.13
2023-02-02T00:53:14.362Z,970.04
2023-02-02T00:54:14.341Z,970.01
2023-02-02T00:55:14.352Z,970.07
2023-02-02T00:56:14.298Z,970.14
2023-02-02T00:57:14.277Z,970.14
2023-02-02T00:58:14.271Z,970.11
2023-02-02T00:59:14.244Z,970.09
2023-02-02T01:00:14.281Z,970.15
2023-02-02T01:01:14.217Z,970.09
2023-02-02T01:02:14.256Z,970.15
2023-02-02T01:03:14.177Z,970.02
2023-02-02T01:04:14.184Z,970.06
2023-02-02T01:05:14.288Z,970.19
2023-02-02T01:06:14.142Z,970.16
2023-02-02T01:07:14.101Z,970.16
2023-02-02T01:08:14.087Z,970.10
2023-02-02T01:09:14.094Z,970.19
2023-02-02T01:10:47.687Z,970.17
2023-02-02T01:11:14.056Z,970.13
2023-02-02T01:12:14.028Z,970.18
2023-02-02T01:13:14.019Z,970.21
2023-02-02T01:14:14.021Z,970.26
2023-02-02T01:15:14.023Z,970.11
2023-02-02T01:16:14.021Z,970.14
2023-02-02T01:17:13.944Z,970.17
2023-02-02T01:18:13.937Z,970.16
2023-02-02T01:19:13.924Z,970.17
2023-02-02T01:20:13.925Z,970.18
2023-02-02T01:21:13.979Z,970.21
2023-02-02T01:22:13.886Z,970.28
2023-02-02T01:23:13.848Z,970.20
2023-02-02T01:24:13.834Z,970.18
2023-02-02T01:25:13.850Z,970.19
2023-02-02T01:26:13.807Z,970.20
2023-02-02T01:27:13.796Z,970.21
2023-02-02T01:28:13.772Z,970.17
2023-02-02T01:29:13.753Z,970.14
2023-02-02T01:30:13.764Z,970.28
2023-02-02T01:31:13.832Z,970.29
2023-02-02T01:32:13.694Z,970.27
2023-02-02T01:33:13.681Z,970.30
2023-02-02T01:34:13.669Z,970.25
2023-02-02T01:35:13.675Z,970.25
2023-02-02T01:36:13.660Z,970.29
2023-02-02T01:37:13.614Z,970.31
2023-02-02T01:38:13.600Z,970.28
2023-02-02T01:39:13.584Z,970.35
2023-02-02T01:40:13.582Z,970.25
2023-02-02T01:41:13.534Z,970.33
2023-02-02T01:42:13.534Z,970.34
2023-02-02T01:43:13.511Z,970.42
2023-02-02T01:44:13.503Z,970.48
2023-02-02T01:45:13.510Z,970.34
2023-02-02T01:46:13.493Z,970.37
2023-02-02T01:47:13.434Z,970.49
2023-02-02T01:48:13.440Z,970.39
2023-02-02T01:49:13.410Z,970.43
2023-02-02T01:50:13.411Z,970.43
2023-02-02T01:51:13.367Z,970.36
2023-02-02T01:52:13.356Z,970.32
2023-02-02T01:53:13.334Z,970.38
2023-02-02T01:54:13.317Z,970.43
2023-02-02T01:55:13.325Z,970.50
2023-02-02T01:56:13.281Z,970.44
2023-02-02T01:57:13.276Z,970.49
2023-02-02T01:58:13.240Z,970.46
2023-02-02T01:59:13.245Z,970.44
2023-02-02T02:00:13.253Z,970.41
2023-02-02T02:01:13.221Z,970.41
2023-02-02T02:02:13.226Z,970.40
2023-02-02T02:03:13.170Z,970.56
2023-02-02T02:04:13.154Z,970.55
2023-02-02T02:05:13.174Z,970.50
2023-02-02T02:06:13.195Z,970.50
2023-02-02T02:07:13.111Z,970.51
2023-02-02T02:08:13.088Z,970.52
2023-02-02T02:09:13.078Z,970.54
2023-02-02T02:10:13.092Z,970.48
2023-02-02T02:11:13.069Z,970.52
2023-02-02T02:12:13.023Z,970.51
2023-02-02T02:13:13.013Z,970.56
2023-02-02T02:14:12.992Z,970.54
2023-02-02T02:15:13.006Z,970.63
2023-02-02T02:16:12.977Z,970.61
2023-02-02T02:17:13.936Z,970.59
2023-02-02T02:18:12.923Z,970.55
2023-02-02T02:19:12.925Z,970.61
2023-02-02T02:20:12.922Z,970.65
2023-02-02T02:21:12.854Z,970.56
2023-02-02T02:22:12.836Z,970.58
2023-02-02T02:23:12.834Z,970.62
2023-02-02T02:24:12.809Z,970.63
2023-02-02T02:25:13.827Z,970.58
2023-02-02T02:26:12.776Z,970.58
2023-02-02T02:27:12.760Z,970.64
2023-02-02T02:28:12.794Z,970.58
2023-02-02T02:29:12.726Z,970.64
2023-02-02T02:30:12.722Z,970.70
2023-02-02T02:31:12.786Z,970.70
2023-02-02T02:32:12.697Z,970.60
2023-02-02T02:33:12.703Z,970.61
2023-02-02T02:34:12.667Z,970.62
2023-02-02T02:35:12.635Z,970.57
2023-02-02T02:36:12.641Z,970.60
2023-02-02T02:37:12.605Z,970.69
2023-02-02T02:38:12.583Z,970.67
2023-02-02T02:39:12.563Z,970.67
2023-02-02T02:40:12.547Z,970.69
2023-02-02T02:41:12.561Z,970.64
2023-02-02T02:42:12.534Z,970.64
2023-02-02T02:43:12.488Z,970.68
2023-02-02T02:44:12.497Z,970.69
2023-02-02T02:45:12.446Z,970.73
2023-02-02T02:46:13.477Z,970.66
2023-02-02T02:47:12.425Z,970.70
2023-02-02T02:48:12.428Z,970.78
2023-02-02T02:49:12.409Z,970.71
2023-02-02T02:50:12.375Z,970.74
2023-02-02T02:51:12.381Z,970.74
2023-02-02T02:52:12.348Z,970.74
2023-02-02T02:53:12.325Z,970.75
2023-02-02T02:54:12.320Z,970.82
2023-02-02T02:55:12.307Z,970.70
2023-02-02T02:56:12.307Z,970.73
2023-02-02T02:57:12.260Z,970.79
2023-02-02T02:58:12.228Z,970.83
2023-02-02T02:59:12.251Z,970.77
2023-02-02T03:00:12.200Z,970.81
2023-02-02T03:01:12.265Z,970.83
2023-02-02T03:02:12.161Z,970.73
2023-02-02T03:03:12.163Z,970.82
2023-02-02T03:04:12.133Z,970.79
2023-02-02T03:05:12.124Z,970.79
2023-02-02T03:06:12.125Z,970.84
2023-02-02T03:07:12.073Z,970.71
2023-02-02T03:08:12.070Z,970.79
2023-02-02T03:09:12.048Z,970.76
2023-02-02T03:10:12.020Z,970.74
2023-02-02T03:11:12.052Z,970.70
2023-02-02T03:12:11.999Z,970.71
2023-02-02T03:13:11.990Z,970.78
2023-02-02T03:14:11.962Z,970.78
2023-02-02T03:15:12.015Z,970.85
2023-02-02T03:16:12.014Z,970.80
2023-02-02T03:17:11.916Z,970.82
2023-02-02T03:18:11.891Z,970.79
2023-02-02T03:19:11.869Z,970.77
2023-02-02T03:20:11.857Z,970.79
2023-02-02T03:21:11.869Z,970.81
2023-02-02T03:22:11.815Z,970.77
2023-02-02T03:23:11.818Z,970.70
2023-02-02T03:24:11.800Z,970.77
2023-02-02T03:25:11.809Z,970.88
2023-02-02T03:26:11.791Z,970.72
2023-02-02T03:27:11.762Z,970.81
2023-02-02T03:28:11.720Z,970.73
2023-02-02T03:29:11.709Z,970.78
2023-02-02T03:30:11.691Z,970.76
2023-02-02T03:31:11.824Z,970.78
2023-02-02T03:32:11.697Z,970.88
2023-02-02T03:33:11.629Z,970.82
2023-02-02T03:34:11.614Z,970.80
2023-02-02T03:35:11.621Z,970.78
2023-02-02T03:36:11.606Z,970.81
2023-02-02T03:37:11.559Z,970.84
2023-02-02T03:38:11.559Z,970.81
2023-02-02T03:39:11.522Z,970.88
2023-02-02T03:40:11.532Z,970.83
2023-02-02T03:41:11.532Z,970.87
2023-02-02T03:42:11.496Z,970.90
2023-02-02T03:43:11.458Z,970.92
2023-02-02T03:44:11.439Z,970.86
2023-02-02T03:45:12.431Z,970.88
2023-02-02T03:46:11.488Z,970.88
2023-02-02T03:47:11.410Z,970.88
2023-02-02T03:48:11.371Z,970.92
2023-02-02T03:49:11.343Z,970.86
2023-02-02T03:50:11.342Z,970.89
2023-02-02T03:51:11.354Z,970.87
2023-02-02T03:52:11.297Z,970.86
2023-02-02T03:53:11.277Z,970.93
2023-02-02T03:54:11.270Z,970.84
2023-02-02T03:55:11.245Z,970.80
2023-02-02T03:56:11.271Z,970.87
2023-02-02T03:57:11.204Z,970.85
2023-02-02T03:58:11.194Z,970.89
2023-02-02T03:59:11.172Z,970.88
2023-02-02T04:00:11.164Z,970.88
2023-02-02T04:01:11.176Z,970.92
2023-02-02T04:02:11.117Z,970.85
2023-02-02T04:03:11.174Z,970.86
2023-02-02T04:04:11.097Z,970.93
2023-02-02T04:05:11.087Z,970.89
2023-02-02T04:06:11.096Z,970.88
2023-02-02T04:07:11.049Z,970.92
2023-02-02T04:08:11.040Z,970.86
2023-02-02T04:09:11.013Z,970.91
2023-02-02T04:10:10.999Z,970.91
2023-02-02T04:11:10.998Z,971.00
2023-02-02T04:12:10.964Z,971.00
2023-02-02T04:13:10.937Z,971.00
2023-02-02T04:14:10.920Z,970.92
2023-02-02T04:15:10.900Z,970.93
2023-02-02T04:16:10.932Z,970.90
2023-02-02T04:17:10.864Z,970.95
2023-02-02T04:18:10.875Z,970.93
2023-02-02T04:19:10.827Z,970.94
2023-02-02T04:20:10.825Z,970.97
2023-02-02T04:21:10.837Z,970.88
2023-02-02T04:22:10.784Z,970.90
2023-02-02T04:23:10.766Z,970.99
2023-02-02T04:24:10.756Z,970.97
2023-02-02T04:25:10.768Z,971.04
2023-02-02T04:26:10.743Z,970.93
2023-02-02T04:27:10.717Z,971.01
2023-02-02T04:28:10.683Z,971.01
2023-02-02T04:29:10.691Z,971.00
2023-02-02T04:30:10.696Z,971.01
2023-02-02T04:31:10.791Z,971.04
2023-02-02T04:32:10.621Z,971.07
2023-02-02T04:33:10.613Z,971.04
2023-02-02T04:34:10.593Z,971.05
2023-02-02T04:35:10.589Z,971.01
2023-02-02T04:36:10.589Z,971.06
2023-02-02T04:37:10.561Z,971.13
2023-02-02T04:38:10.522Z,971.19
2023-02-02T04:39:10.505Z,971.12
2023-02-02T04:40:10.472Z,971.14
2023-02-02T04:41:10.486Z,971.05
2023-02-02T04:42:10.444Z,971.11
2023-02-02T04:43:10.433Z,971.18
2023-02-02T04:44:10.404Z,971.17
2023-02-02T04:45:10.388Z,971.13
2023-02-02T04:46:10.507Z,971.21
2023-02-02T04:47:10.369Z,971.25
2023-02-02T04:48:10.353Z,971.23
2023-02-02T04:49:10.323Z,971.19
2023-02-02T04:50:10.321Z,971.31
2023-02-02T04:51:10.329Z,971.24
2023-02-02T04:52:10.344Z,971.26
2023-02-02T04:53:10.269Z,971.24
2023-02-02T04:54:10.246Z,971.31
2023-02-02T04:55:10.219Z,971.29
2023-02-02T04:56:10.255Z,971.22
2023-02-02T04:57:10.183Z,971.31
2023-02-02T04:58:10.169Z,971.27
2023-02-02T04:59:10.159Z,971.27
2023-02-02T05:00:10.143Z,971.26
2023-02-02T05:01:10.178Z,971.32
2023-02-02T05:02:10.101Z,971.18
2023-02-02T05:03:10.088Z,971.25
2023-02-02T05:04:10.122Z,971.23
2023-02-02T05:05:10.071Z,971.25
2023-02-02T05:06:10.096Z,971.20
2023-02-02T05:07:10.049Z,971.21
2023-02-02T05:08:09.997Z,971.29
2023-02-02T05:09:11.055Z,971.30
2023-02-02T05:10:09.985Z,971.18
2023-02-02T05:11:10.039Z,971.20
2023-02-02T05:12:09.930Z,971.29
2023-02-02T05:13:09.920Z,971.25
2023-02-02T05:14:09.903Z,971.29
2023-02-02T05:15:09.898Z,971.09
2023-02-02T05:16:09.917Z,971.29
2023-02-02T05:17:09.844Z,971.26
2023-02-02T05:18:09.830Z,971.26
2023-02-02T05:19:09.809Z,971.29
2023-02-02T05:20:09.802Z,971.27
2023-02-02T05:21:09.773Z,971.29
2023-02-02T05:22:09.797Z,971.28
2023-02-02T05:23:09.735Z,971.30
2023-02-02T05:24:09.732Z,971.33
2023-02-02T05:25:09.707Z,971.27
2023-02-02T05:26:09.741Z,971.27
2023-02-02T05:27:09.705Z,971.21
2023-02-02T05:28:09.686Z,971.35
2023-02-02T05:29:09.640Z,971.38
2023-02-02T05:30:09.621Z,971.33
2023-02-02T05:31:09.701Z,971.27
2023-02-02T05:32:09.795Z,971.25
2023-02-02T05:33:09.568Z,971.25
2023-02-02T05:34:09.550Z,971.35
2023-02-02T05:35:09.553Z,971.32
2023-02-02T05:36:09.517Z,971.28
2023-02-02T05:37:09.546Z,971.27
2023-02-02T05:38:09.493Z,971.36
2023-02-02T05:39:09.482Z,971.29
2023-02-02T05:40:09.466Z,971.40
2023-02-02T05:41:09.463Z,971.40
2023-02-02T05:42:09.587Z,971.41
2023-02-02T05:43:09.418Z,971.35
2023-02-02T05:44:09.391Z,971.36
2023-02-02T05:45:09.372Z,971.39
2023-02-02T05:46:09.474Z,971.35
2023-02-02T05:47:09.377Z,971.35
2023-02-02T05:48:09.326Z,971.36
2023-02-02T05:49:09.303Z,971.35
2023-02-02T05:50:09.296Z,971.36
2023-02-02T05:51:09.273Z,971.31
2023-02-02T05:52:09.293Z,971.34
2023-02-02T05:53:09.228Z,971.41
2023-02-02T05:54:09.224Z,971.37
2023-02-02T05:55:09.197Z,971.34
2023-02-02T05:56:09.186Z,971.34
2023-02-02T05:57:09.192Z,971.37
2023-02-02T05:58:09.155Z,971.33
2023-02-02T05:59:09.128Z,971.37
2023-02-02T06:00:09.209Z,971.34
2023-02-02T06:01:09.169Z,971.35
2023-02-02T06:02:09.143Z,971.32
2023-02-02T06:03:09.189Z,971.35
2023-02-02T06:04:09.117Z,971.32
2023-02-02T06:05:09.052Z,971.36
2023-02-02T06:06:09.019Z,971.34
2023-02-02T06:07:09.074Z,971.39
2023-02-02T06:08:08.985Z,971.47
2023-02-02T06:09:09.007Z,971.46
2023-02-02T06:10:08.958Z,971.37
2023-02-02T06:11:08.931Z,971.41
2023-02-02T06:12:08.946Z,971.43
2023-02-02T06:13:08.895Z,971.41
2023-02-02T06:14:08.893Z,971.42
2023-02-02T06:15:08.881Z,971.50
2023-02-02T06:16:08.935Z,971.43
2023-02-02T06:17:08.865Z,971.42
2023-02-02T06:18:08.809Z,971.44
2023-02-02T06:19:08.825Z,971.46
2023-02-02T06:20:08.799Z,971.46
2023-02-02T06:21:08.784Z,971.49
2023-02-02T06:22:08.777Z,971.55
2023-02-02T06:23:08.724Z,971.54
2023-02-02T06:24:08.713Z,971.52
2023-02-02T06:25:08.707Z,971.53
2023-02-02T06:26:08.698Z,971.49
2023-02-02T06:27:08.708Z,971.48
2023-02-02T06:28:08.633Z,971.51
2023-02-02T06:29:09.669Z,971.53
2023-02-02T06:30:08.622Z,971.50
2023-02-02T06:31:08.669Z,971.50
2023-02-02T06:32:08.727Z,971.48
2023-02-02T06:33:08.574Z,971.53
2023-02-02T06:34:08.547Z,971.52
2023-02-02T06:35:08.528Z,971.48
2023-02-02T06:36:08.510Z,971.44
2023-02-02T06:37:08.520Z,971.53
2023-02-02T06:38:08.474Z,971.50
2023-02-02T06:39:08.501Z,971.51
2023-02-02T06:40:08.437Z,971.52
2023-02-02T06:41:08.426Z,971.57
2023-02-02T06:42:20.470Z,971.55
2023-02-02T06:43:10.393Z,971.59
2023-02-02T06:44:08.377Z,971.59
2023-02-02T06:45:08.354Z,971.60
2023-02-02T06:46:08.367Z,971.70
2023-02-02T06:47:08.362Z,971.59
2023-02-02T06:48:08.309Z,971.68
2023-02-02T06:49:08.290Z,971.63
2023-02-02T06:50:08.281Z,971.64
2023-02-02T06:51:08.255Z,971.71
2023-02-02T06:52:08.266Z,971.72
2023-02-02T06:53:08.281Z,971.66
2023-02-02T06:54:08.213Z,971.73
2023-02-02T06:55:08.177Z,971.79
2023-02-02T06:56:08.161Z,971.78
2023-02-02T06:57:08.185Z,971.76
2023-02-02T06:58:08.148Z,971.81
2023-02-02T06:59:08.234Z,971.78
2023-02-02T07:00:08.101Z,971.85
2023-02-02T07:01:08.136Z,971.78
2023-02-02T07:02:08.210Z,971.83
2023-02-02T07:03:08.091Z,971.88
2023-02-02T07:04:08.039Z,971.86
2023-02-02T07:05:08.017Z,971.90
2023-02-02T07:06:08.028Z,971.92
2023-02-02T07:07:08.021Z,971.92
2023-02-02T07:08:07.989Z,971.88
2023-02-02T07:09:07.956Z,971.95
2023-02-02T07:10:07.917Z,971.87
2023-02-02T07:11:38.175Z,971.92
2023-02-02T07:12:08.929Z,971.87
2023-02-02T07:13:07.878Z,971.89
2023-02-02T07:14:07.861Z,971.86
2023-02-02T07:15:07.848Z,971.89
2023-02-02T07:16:07.889Z,971.89
2023-02-02T07:17:07.879Z,971.91
2023-02-02T07:18:07.799Z,971.94
2023-02-02T07:19:07.785Z,971.93
2023-02-02T07:20:07.771Z,971.94
2023-02-02T07:21:07.739Z,971.91
2023-02-02T07:22:10.292Z,971.90
2023-02-02T07:23:07.705Z,971.93
2023-02-02T07:24:07.702Z,971.95
2023-02-02T07:25:07.667Z,971.93
2023-02-02T07:26:07.650Z,971.91
2023-02-02T07:27:07.679Z,971.94
2023-02-02T07:28:07.618Z,971.91
2023-02-02T07:29:07.605Z,971.94
2023-02-02T07:30:07.593Z,971.96
2023-02-02T07:31:07.661Z,971.98
2023-02-02T07:32:07.616Z,972.00
2023-02-02T07:33:07.552Z,972.03
2023-02-02T07:34:07.523Z,972.05
2023-02-02T07:35:07.606Z,972.08
2023-02-02T07:36:07.482Z,972.13
2023-02-02T07:37:07.498Z,972.17
2023-02-02T07:38:07.446Z,972.20
2023-02-02T07:39:07.440Z,972.20
2023-02-02T07:40:07.415Z,972.22
2023-02-02T07:41:07.413Z,972.29
2023-02-02T07:42:07.412Z,972.30
2023-02-02T07:43:07.390Z,972.29
2023-02-02T07:44:07.359Z,972.34
2023-02-02T07:45:24.624Z,972.33
2023-02-02T07:46:08.386Z,972.33
2023-02-02T07:47:07.348Z,972.33
2023-02-02T07:48:07.283Z,972.40
2023-02-02T07:49:07.268Z,972.36
2023-02-02T07:50:07.246Z,972.38
2023-02-02T07:51:07.256Z,972.36
2023-02-02T07:52:07.238Z,972.38
2023-02-02T07:53:07.197Z,972.38
2023-02-02T07:54:07.191Z,972.39
2023-02-02T07:55:14.544Z,972.44
2023-02-02T07:56:09.154Z,972.49
2023-02-02T07:57:07.167Z,972.41
2023-02-02T07:58:07.120Z,972.39
2023-02-02T07:59:07.106Z,972.40
2023-02-02T08:00:07.086Z,972.41
2023-02-02T08:01:07.127Z,972.40
2023-02-02T08:02:07.112Z,972.41
2023-02-02T08:03:07.097Z,972.42
2023-02-02T08:04:07.026Z,972.38
2023-02-02T08:05:07.023Z,972.39
2023-02-02T08:06:06.977Z,972.41
2023-02-02T08:07:06.960Z,972.41
2023-02-02T08:08:06.974Z,972.38
2023-02-02T08:09:06.924Z,972.35
2023-02-02T08:10:06.905Z,972.35
2023-02-02T08:11:06.881Z,972.38
2023-02-02T08:12:06.936Z,972.36
2023-02-02T08:13:06.887Z,972.37
2023-02-02T08:14:06.842Z,972.44
2023-02-02T08:15:07.510Z,972.48
2023-02-02T08:16:06.884Z,972.49
2023-02-02T08:17:06.793Z,972.50
2023-02-02T08:18:06.805Z,972.57
2023-02-02T08:19:06.757Z,972.56
2023-02-02T08:20:06.743Z,972.61
2023-02-02T08:21:06.722Z,972.60
2023-02-02T08:22:06.710Z,972.58
2023-02-02T08:23:06.726Z,972.59
2023-02-02T08:24:06.673Z,972.60
2023-02-02T08:25:06.659Z,972.65
2023-02-02T08:26:06.662Z,972.67
2023-02-02T08:27:06.648Z,972.70
2023-02-02T08:28:06.632Z,972.68
2023-02-02T08:29:06.589Z,972.69
2023-02-02T08:30:06.592Z,972.75
2023-02-02T08:31:06.598Z,972.76
2023-02-02T08:32:06.553Z,972.74
2023-02-02T08:33:06.545Z,972.73
2023-02-02T08:34:06.536Z,972.78
2023-02-02T08:35:06.487Z,972.79
2023-02-02T08:36:06.485Z,972.80
2023-02-02T08:37:06.473Z,972.81
2023-02-02T08:38:06.476Z,972.82
2023-02-02T08:39:06.424Z,972.81
2023-02-02T08:40:06.473Z,972.80
2023-02-02T08:41:06.393Z,972.85
2023-02-02T08:42:07.386Z,972.83
2023-02-02T08:43:06.382Z,972.84
2023-02-02T08:44:06.354Z,972.82
2023-02-02T08:46:02.074Z,972.82
2023-02-02T08:46:07.298Z,972.84
2023-02-02T08:47:06.302Z,972.91
2023-02-02T08:48:12.035Z,972.85
2023-02-02T08:49:08.255Z,972.86
2023-02-02T08:50:06.265Z,972.85
2023-02-02T08:51:06.223Z,972.86
2023-02-02T08:52:06.203Z,972.87
2023-02-02T08:53:06.225Z,972.85
2023-02-02T08:54:06.176Z,972.81
2023-02-02T08:55:06.217Z,972.93
2023-02-02T08:56:06.162Z,972.92
2023-02-02T08:57:06.128Z,972.85
2023-02-02T08:58:06.143Z,972.88
2023-02-02T08:59:06.086Z,972.95
2023-02-02T09:00:06.086Z,972.96
2023-02-02T09:01:06.126Z,972.91
2023-02-02T09:02:06.069Z,972.91
2023-02-02T09:03:06.046Z,972.89
2023-02-02T09:04:05.993Z,972.94
2023-02-02T09:05:05.994Z,972.94
2023-02-02T09:06:05.977Z,972.95
2023-02-02T09:07:05.958Z,972.94
2023-02-02T09:08:05.973Z,972.90
2023-02-02T09:09:05.944Z,972.89
2023-02-02T09:10:05.941Z,972.88
2023-02-02T09:11:05.912Z,972.89
2023-02-02T09:12:05.860Z,972.85
2023-02-02T09:13:05.869Z,972.97
2023-02-02T09:14:05.824Z,972.87
2023-02-02T09:15:05.863Z,972.96
2023-02-02T09:16:05.846Z,972.98
2023-02-02T09:17:05.769Z,972.88
2023-02-02T09:18:05.808Z,972.95
2023-02-02T09:19:05.752Z,972.96
2023-02-02T09:20:05.718Z,972.95
2023-02-02T09:21:05.712Z,972.98
2023-02-02T09:22:05.690Z,972.98
2023-02-02T09:23:05.704Z,972.96
2023-02-02T09:24:05.660Z,973.04
2023-02-02T09:25:05.632Z,973.02
2023-02-02T09:26:05.626Z,973.04
2023-02-02T09:27:05.586Z,973.06
2023-02-02T09:28:06.641Z,973.07
2023-02-02T09:29:05.569Z,973.12
2023-02-02T09:30:05.548Z,973.16
2023-02-02T09:31:05.581Z,973.17
2023-02-02T09:32:05.613Z,973.25
2023-02-02T09:33:05.592Z,973.18
2023-02-02T09:34:05.499Z,973.25
2023-02-02T09:35:05.584Z,973.22
2023-02-02T09:36:05.459Z,973.29
2023-02-02T09:37:05.426Z,973.27
2023-02-02T09:38:05.454Z,973.27
2023-02-02T09:39:05.414Z,973.35
2023-02-02T09:40:05.384Z,973.36
2023-02-02T09:41:07.544Z,973.40
2023-02-02T09:42:05.353Z,973.37
2023-02-02T09:43:05.379Z,973.41
2023-02-02T09:44:05.308Z,973.41
2023-02-02T09:45:06.338Z,973.42
2023-02-02T09:46:05.363Z,973.44
2023-02-02T09:47:05.256Z,973.37
2023-02-02T09:48:05.517Z,973.42
2023-02-02T09:49:05.255Z,973.44
2023-02-02T09:50:05.224Z,973.43
2023-02-02T09:51:06.789Z,973.43
2023-02-02T09:52:05.191Z,973.41
2023-02-02T09:53:07.774Z,973.47
2023-02-02T09:54:07.141Z,973.45
2023-02-02T09:55:05.847Z,973.50
2023-02-02T09:56:05.618Z,973.48
2023-02-02T09:57:05.263Z,973.45
2023-02-02T09:58:05.657Z,973.46
2023-02-02T09:59:19.199Z,973.43
2023-02-02T10:00:07.055Z,973.52
2023-02-02T10:01:05.072Z,973.50
2023-02-02T10:02:06.293Z,973.59
2023-02-02T10:03:05.031Z,973.59
2023-02-02T10:04:05.031Z,973.52
2023-02-02T10:05:06.775Z,973.59
2023-02-02T10:06:04.950Z,973.56
2023-02-02T10:07:04.931Z,973.52
2023-02-02T10:08:04.949Z,973.60
2023-02-02T10:09:04.925Z,973.59
2023-02-02T10:10:04.872Z,973.62
2023-02-02T10:11:04.888Z,973.66
2023-02-02T10:12:04.845Z,973.63
2023-02-02T10:13:04.952Z,973.68
2023-02-02T10:14:04.824Z,973.68
2023-02-02T10:15:05.815Z,973.67
2023-02-02T10:16:04.832Z,973.72
2023-02-02T10:17:04.745Z,973.71
2023-02-02T10:18:06.102Z,973.70
2023-02-02T10:19:05.739Z,973.73
2023-02-02T10:20:04.708Z,973.73
2023-02-02T10:21:04.675Z,973.73
2023-02-02T10:22:04.704Z,973.72
2023-02-02T10:23:04.692Z,973.73
2023-02-02T10:24:04.660Z,973.72
2023-02-02T10:25:04.617Z,973.74
2023-02-02T10:26:04.627Z,973.77
2023-02-02T10:27:05.042Z,973.73
2023-02-02T10:28:04.781Z,973.73
2023-02-02T10:29:04.586Z,973.82
2023-02-02T10:30:04.531Z,973.82
2023-02-02T10:31:04.626Z,973.81
2023-02-02T10:32:04.586Z,973.81
2023-02-02T10:33:04.770Z,973.80
2023-02-02T10:34:04.474Z,973.83
2023-02-02T10:35:13.529Z,973.82
2023-02-02T10:36:06.439Z,973.83
2023-02-02T10:37:04.405Z,973.85
2023-02-02T10:38:04.428Z,973.84
2023-02-02T10:39:04.383Z,973.85
2023-02-02T10:40:04.412Z,973.86
2023-02-02T10:41:04.355Z,973.88
2023-02-02T10:42:04.315Z,973.92
2023-02-02T10:43:04.326Z,973.88
2023-02-02T10:44:04.302Z,973.91
2023-02-02T10:45:04.273Z,973.91
2023-02-02T10:46:04.283Z,973.92
2023-02-02T10:47:04.259Z,973.98
2023-02-02T10:48:04.255Z,974.00
2023-02-02T10:49:04.194Z,974.00
2023-02-02T10:50:04.209Z,974.05
2023-02-02T10:51:04.197Z,973.94
2023-02-02T10:52:04.140Z,973.95
2023-02-02T10:53:04.192Z,973.98
2023-02-02T10:54:04.125Z,973.94
2023-02-02T10:55:04.641Z,974.02
2023-02-02T10:56:05.095Z,973.93
2023-02-02T10:57:04.067Z,973.94
2023-02-02T10:58:04.055Z,973.94
2023-02-02T10:59:04.067Z,973.96
2023-02-02T11:00:04.024Z,973.97
2023-02-02T11:01:04.009Z,973.97
2023-02-02T11:02:20.001Z,974.01
2023-02-02T11:03:06.031Z,974.07
2023-02-02T11:04:03.946Z,974.03
2023-02-02T11:05:03.929Z,974.05
2023-02-02T11:06:03.909Z,974.04
2023-02-02T11:07:03.911Z,974.04
2023-02-02T11:08:03.894Z,974.07
2023-02-02T11:09:03.898Z,974.02
2023-02-02T11:10:03.848Z,974.03
2023-02-02T11:11:03.846Z,974.08
2023-02-02T11:12:03.812Z,974.04
2023-02-02T11:13:03.813Z,974.10
2023-02-02T11:14:03.840Z,974.10
2023-02-02T11:15:03.821Z,974.10
2023-02-02T11:16:05.827Z,974.16
2023-02-02T11:17:04.728Z,974.16
2023-02-02T11:18:03.705Z,974.15
2023-02-02T11:19:03.734Z,974.11
2023-02-02T11:20:03.711Z,974.19
2023-02-02T11:21:03.647Z,974.10
2023-02-02T11:22:04.696Z,974.09
2023-02-02T11:23:03.619Z,974.12
2023-02-02T11:24:03.639Z,974.06
2023-02-02T11:25:03.630Z,974.15
2023-02-02T11:26:03.582Z,974.10
2023-02-02T11:27:03.566Z,974.11
2023-02-02T11:28:03.554Z,974.07
2023-02-02T11:29:03.561Z,974.10
2023-02-02T11:30:03.528Z,974.07
2023-02-02T11:31:03.658Z,974.10
2023-02-02T11:32:03.519Z,974.12
2023-02-02T11:33:03.452Z,974.08
2023-02-02T11:34:03.462Z,974.07
2023-02-02T11:35:03.415Z,974.10
2023-02-02T11:36:03.399Z,974.14
2023-02-02T11:37:03.499Z,974.15
2023-02-02T11:38:03.363Z,974.18
2023-02-02T11:39:04.387Z,974.18
2023-02-02T11:40:03.346Z,974.24
2023-02-02T11:41:03.330Z,974.21
2023-02-02T11:42:03.292Z,974.21
2023-02-02T11:43:03.290Z,974.17
2023-02-02T11:44:03.296Z,974.17
2023-02-02T11:45:03.267Z,974.17
2023-02-02T11:46:03.445Z,974.24
2023-02-02T11:47:03.213Z,974.25
2023-02-02T11:48:03.183Z,974.27
2023-02-02T11:49:03.209Z,974.28
2023-02-02T11:50:03.623Z,974.20
2023-02-02T11:51:03.202Z,974.27
2023-02-02T11:52:03.123Z,974.22
2023-02-02T11:53:03.107Z,974.19
2023-02-02T11:54:03.121Z,974.20
2023-02-02T11:55:03.076Z,974.27
2023-02-02T11:56:03.062Z,974.32
2023-02-02T11:57:03.036Z,974.23
2023-02-02T11:58:03.031Z,974.23
2023-02-02T11:59:03.048Z,974.22
2023-02-02T12:00:02.976Z,974.21
2023-02-02T12:01:03.009Z,974.25
2023-02-02T12:02:02.988Z,974.22
2023-02-02T12:03:02.937Z,974.24
2023-02-02T12:04:02.997Z,974.23
2023-02-02T12:05:02.947Z,974.28
2023-02-02T12:06:02.887Z,974.25
2023-02-02T12:07:02.860Z,974.21
2023-02-02T12:08:02.897Z,974.24
2023-02-02T12:09:02.860Z,974.29
2023-02-02T12:10:02.815Z,974.30
2023-02-02T12:11:02.799Z,974.24
2023-02-02T12:12:03.796Z,974.33
2023-02-02T12:13:02.777Z,974.31
2023-02-02T12:14:02.788Z,974.24
2023-02-02T12:15:02.745Z,974.25
2023-02-02T12:16:02.725Z,974.32
2023-02-02T12:17:02.702Z,974.29
2023-02-02T12:18:02.824Z,974.31
2023-02-02T12:19:02.799Z,974.34
2023-02-02T12:20:02.639Z,974.37
2023-02-02T12:21:02.639Z,974.32
2023-02-02T12:22:02.607Z,974.34
2023-02-02T12:23:02.612Z,974.33
2023-02-02T12:24:02.609Z,974.29
2023-02-02T12:25:02.574Z,974.34
2023-02-02T12:26:02.597Z,974.34
2023-02-02T12:27:02.535Z,974.34
2023-02-02T12:28:02.505Z,974.30